sensor_id;sensor_type;location;lat;lon;timestamp;P1;durP1;ratioP1;P2;durP2;ratioP2
76814;SDS011;65768;49.906;19.384;2023-04-02T00:04:12;24.80;;;14.10;;
76814;SDS011;65768;49.906;19.384;2023-04-02T00:06:53;22.50;;;13.60;;
76814;SDS011;65768;49.906;19.384;2023-04-02T00:09:31;27.50;;;14.50;;
76814;SDS011;65768;49.906;19.384;2023-04-02T00:12:12;22.90;;;13.40;;
76814;SDS011;65768;49.906;19.384;2023-04-02T00:14:45;28.40;;;16.80;;
76814;SDS011;65768;49.906;19.384;2023-04-02T00:17:16;29.40;;;15.90;;
76814;SDS011;65768;49.906;19.384;2023-04-02T00:19:52;25.20;;;15.70;;
76814;SDS011;65768;49.906;19.384;2023-04-02T00:22:29;26.80;;;15.30;;
76814;SDS011;65768;49.906;19.384;2023-04-02T00:25:00;31.70;;;18.20;;
76814;SDS011;65768;49.906;19.384;2023-04-02T00:27:34;34.80;;;18.00;;
76814;SDS011;65768;49.906;19.384;2023-04-02T00:30:03;39.30;;;18.80;;
76814;SDS011;65768;49.906;19.384;2023-04-02T00:32:34;33.10;;;19.20;;
76814;SDS011;65768;49.906;19.384;2023-04-02T00:35:21;36.40;;;20.40;;
76814;SDS011;65768;49.906;19.384;2023-04-02T00:38:01;38.50;;;22.80;;
76814;SDS011;65768;49.906;19.384;2023-04-02T00:40:30;33.70;;;19.80;;
76814;SDS011;65768;49.906;19.384;2023-04-02T00:42:59;38.60;;;22.00;;
76814;SDS011;65768;49.906;19.384;2023-04-02T00:45:31;31.50;;;18.10;;
76814;SDS011;65768;49.906;19.384;2023-04-02T00:48:22;28.10;;;16.60;;
76814;SDS011;65768;49.906;19.384;2023-04-02T00:51:12;33.50;;;20.10;;
76814;SDS011;65768;49.906;19.384;2023-04-02T00:53:45;34.90;;;18.80;;
76814;SDS011;65768;49.906;19.384;2023-04-02T00:56:27;33.90;;;18.70;;
76814;SDS011;65768;49.906;19.384;2023-04-02T00:59:00;34.70;;;20.80;;
76814;SDS011;65768;49.906;19.384;2023-04-02T01:01:34;41.90;;;23.60;;
76814;SDS011;65768;49.906;19.384;2023-04-02T01:04:30;40.30;;;20.50;;
76814;SDS011;65768;49.906;19.384;2023-04-02T01:07:02;33.40;;;18.90;;
76814;SDS011;65768;49.906;19.384;2023-04-02T01:10:00;35.00;;;19.40;;
76814;SDS011;65768;49.906;19.384;2023-04-02T01:12:55;37.80;;;19.30;;
76814;SDS011;65768;49.906;19.384;2023-04-02T01:15:46;36.30;;;18.90;;
76814;SDS011;65768;49.906;19.384;2023-04-02T01:24:08;33.50;;;18.10;;
76814;SDS011;65768;49.906;19.384;2023-04-02T01:26:57;39.90;;;21.50;;
76814;SDS011;65768;49.906;19.384;2023-04-02T01:29:29;42.30;;;21.90;;
76814;SDS011;65768;49.906;19.384;2023-04-02T01:32:09;42.30;;;22.10;;
76814;SDS011;65768;49.906;19.384;2023-04-02T01:34:40;41.50;;;21.70;;
76814;SDS011;65768;49.906;19.384;2023-04-02T01:37:17;39.00;;;20.80;;
76814;SDS011;65768;49.906;19.384;2023-04-02T01:40:06;38.70;;;21.50;;
76814;SDS011;65768;49.906;19.384;2023-04-02T01:45:33;39.90;;;20.40;;
76814;SDS011;65768;49.906;19.384;2023-04-02T01:48:36;36.30;;;21.50;;
76814;SDS011;65768;49.906;19.384;2023-04-02T01:50:58;41.30;;;22.70;;
76814;SDS011;65768;49.906;19.384;2023-04-02T01:53:32;36.40;;;21.10;;
76814;SDS011;65768;49.906;19.384;2023-04-02T01:56:01;35.50;;;20.30;;
76814;SDS011;65768;49.906;19.384;2023-04-02T01:58:32;35.30;;;20.40;;
76814;SDS011;65768;49.906;19.384;2023-04-02T02:01:02;38.50;;;21.20;;
76814;SDS011;65768;49.906;19.384;2023-04-02T02:03:34;36.30;;;22.10;;
76814;SDS011;65768;49.906;19.384;2023-04-02T02:06:04;37.50;;;20.80;;
76814;SDS011;65768;49.906;19.384;2023-04-02T02:08:38;35.90;;;19.70;;
76814;SDS011;65768;49.906;19.384;2023-04-02T02:11:14;35.90;;;21.10;;
76814;SDS011;65768;49.906;19.384;2023-04-02T02:13:46;42.20;;;24.00;;
76814;SDS011;65768;49.906;19.384;2023-04-02T02:16:19;38.50;;;21.60;;
76814;SDS011;65768;49.906;19.384;2023-04-02T02:18:50;40.40;;;22.10;;
76814;SDS011;65768;49.906;19.384;2023-04-02T02:33:01;40.30;;;21.40;;
76814;SDS011;65768;49.906;19.384;2023-04-02T02:35:45;37.30;;;20.10;;
76814;SDS011;65768;49.906;19.384;2023-04-02T02:41:15;40.40;;;22.00;;
76814;SDS011;65768;49.906;19.384;2023-04-02T02:46:56;40.70;;;20.60;;
76814;SDS011;65768;49.906;19.384;2023-04-02T02:49:45;38.10;;;21.30;;
76814;SDS011;65768;49.906;19.384;2023-04-02T02:55:27;39.80;;;21.30;;
76814;SDS011;65768;49.906;19.384;2023-04-02T02:58:00;34.30;;;19.30;;
76814;SDS011;65768;49.906;19.384;2023-04-02T03:00:35;52.30;;;23.30;;
76814;SDS011;65768;49.906;19.384;2023-04-02T03:03:13;51.20;;;22.80;;
76814;SDS011;65768;49.906;19.384;2023-04-02T03:05:50;40.80;;;20.70;;
76814;SDS011;65768;49.906;19.384;2023-04-02T03:08:26;44.70;;;22.90;;
76814;SDS011;65768;49.906;19.384;2023-04-02T03:14:06;41.80;;;21.50;;
76814;SDS011;65768;49.906;19.384;2023-04-02T03:16:48;45.50;;;21.40;;
76814;SDS011;65768;49.906;19.384;2023-04-02T03:21:56;40.20;;;21.20;;
76814;SDS011;65768;49.906;19.384;2023-04-02T03:28:07;45.90;;;22.40;;
76814;SDS011;65768;49.906;19.384;2023-04-02T03:30:48;44.80;;;23.10;;
76814;SDS011;65768;49.906;19.384;2023-04-02T03:33:26;45.90;;;23.20;;
76814;SDS011;65768;49.906;19.384;2023-04-02T03:41:45;40.70;;;21.20;;
76814;SDS011;65768;49.906;19.384;2023-04-02T03:44:20;38.20;;;21.50;;
76814;SDS011;65768;49.906;19.384;2023-04-02T03:46:58;40.90;;;19.80;;
76814;SDS011;65768;49.906;19.384;2023-04-02T03:49:35;45.70;;;25.20;;
76814;SDS011;65768;49.906;19.384;2023-04-02T03:52:13;47.50;;;22.50;;
76814;SDS011;65768;49.906;19.384;2023-04-02T03:54:47;42.20;;;20.60;;
76814;SDS011;65768;49.906;19.384;2023-04-02T03:57:24;42.70;;;21.30;;
76814;SDS011;65768;49.906;19.384;2023-04-02T04:02:40;39.20;;;19.90;;
76814;SDS011;65768;49.906;19.384;2023-04-02T04:05:46;43.90;;;21.60;;
76814;SDS011;65768;49.906;19.384;2023-04-02T04:08:17;43.00;;;23.40;;
76814;SDS011;65768;49.906;19.384;2023-04-02T04:13:21;43.80;;;20.90;;
76814;SDS011;65768;49.906;19.384;2023-04-02T04:16:16;43.50;;;21.20;;
76814;SDS011;65768;49.906;19.384;2023-04-02T04:19:18;43.40;;;21.20;;
76814;SDS011;65768;49.906;19.384;2023-04-02T04:21:52;43.80;;;20.40;;
76814;SDS011;65768;49.906;19.384;2023-04-02T04:24:24;40.00;;;21.00;;
76814;SDS011;65768;49.906;19.384;2023-04-02T04:32:20;43.30;;;21.80;;
76814;SDS011;65768;49.906;19.384;2023-04-02T04:34:54;37.70;;;18.00;;
76814;SDS011;65768;49.906;19.384;2023-04-02T04:37:42;43.20;;;20.80;;
76814;SDS011;65768;49.906;19.384;2023-04-02T04:40:20;44.80;;;21.20;;
76814;SDS011;65768;49.906;19.384;2023-04-02T04:42:52;44.50;;;22.30;;
76814;SDS011;65768;49.906;19.384;2023-04-02T04:47:57;34.00;;;18.40;;
76814;SDS011;65768;49.906;19.384;2023-04-02T04:51:15;43.00;;;20.50;;
76814;SDS011;65768;49.906;19.384;2023-04-02T04:53:24;47.30;;;22.60;;
76814;SDS011;65768;49.906;19.384;2023-04-02T04:56:03;51.60;;;23.80;;
76814;SDS011;65768;49.906;19.384;2023-04-02T05:01:21;48.50;;;23.90;;
76814;SDS011;65768;49.906;19.384;2023-04-02T05:03:56;44.50;;;23.10;;
76814;SDS011;65768;49.906;19.384;2023-04-02T05:09:29;35.70;;;17.60;;
76814;SDS011;65768;49.906;19.384;2023-04-02T05:15:00;28.80;;;15.50;;
76814;SDS011;65768;49.906;19.384;2023-04-02T05:20:31;27.40;;;14.20;;
76814;SDS011;65768;49.906;19.384;2023-04-02T05:25:52;29.40;;;15.60;;
76814;SDS011;65768;49.906;19.384;2023-04-02T05:31:08;37.70;;;18.60;;
76814;SDS011;65768;49.906;19.384;2023-04-02T05:33:43;32.40;;;17.20;;
76814;SDS011;65768;49.906;19.384;2023-04-02T05:36:18;24.90;;;14.00;;
76814;SDS011;65768;49.906;19.384;2023-04-02T05:38:49;20.40;;;11.40;;
76814;SDS011;65768;49.906;19.384;2023-04-02T05:44:35;22.50;;;10.90;;
76814;SDS011;65768;49.906;19.384;2023-04-02T05:49:42;18.40;;;10.00;;
76814;SDS011;65768;49.906;19.384;2023-04-02T05:52:24;19.60;;;10.30;;
76814;SDS011;65768;49.906;19.384;2023-04-02T05:58:25;20.70;;;10.30;;
76814;SDS011;65768;49.906;19.384;2023-04-02T06:01:09;15.50;;;8.70;;
76814;SDS011;65768;49.906;19.384;2023-04-02T06:06:55;21.90;;;10.70;;
76814;SDS011;65768;49.906;19.384;2023-04-02T06:12:21;18.70;;;10.00;;
76814;SDS011;65768;49.906;19.384;2023-04-02T06:15:05;18.50;;;10.00;;
76814;SDS011;65768;49.906;19.384;2023-04-02T06:17:52;14.10;;;8.10;;
76814;SDS011;65768;49.906;19.384;2023-04-02T06:20:39;16.40;;;9.20;;
76814;SDS011;65768;49.906;19.384;2023-04-02T06:28:45;22.10;;;10.90;;
76814;SDS011;65768;49.906;19.384;2023-04-02T06:31:26;21.30;;;10.30;;
76814;SDS011;65768;49.906;19.384;2023-04-02T06:34:03;23.30;;;12.10;;
76814;SDS011;65768;49.906;19.384;2023-04-02T06:36:34;21.70;;;10.60;;
76814;SDS011;65768;49.906;19.384;2023-04-02T06:39:06;17.20;;;9.10;;
76814;SDS011;65768;49.906;19.384;2023-04-02T06:41:36;21.80;;;12.10;;
76814;SDS011;65768;49.906;19.384;2023-04-02T06:44:26;23.90;;;11.50;;
76814;SDS011;65768;49.906;19.384;2023-04-02T06:46:56;19.70;;;11.00;;
76814;SDS011;65768;49.906;19.384;2023-04-02T06:49:31;19.50;;;10.40;;
76814;SDS011;65768;49.906;19.384;2023-04-02T06:52:03;22.90;;;12.90;;
76814;SDS011;65768;49.906;19.384;2023-04-02T06:54:37;18.70;;;9.90;;
76814;SDS011;65768;49.906;19.384;2023-04-02T06:57:06;20.60;;;10.40;;
76814;SDS011;65768;49.906;19.384;2023-04-02T06:59:35;23.60;;;12.40;;
76814;SDS011;65768;49.906;19.384;2023-04-02T07:02:04;19.20;;;9.50;;
76814;SDS011;65768;49.906;19.384;2023-04-02T07:05:05;21.90;;;11.30;;
76814;SDS011;65768;49.906;19.384;2023-04-02T07:10:11;16.90;;;7.80;;
76814;SDS011;65768;49.906;19.384;2023-04-02T07:12:39;19.20;;;10.30;;
76814;SDS011;65768;49.906;19.384;2023-04-02T07:15:09;17.60;;;8.60;;
76814;SDS011;65768;49.906;19.384;2023-04-02T07:17:42;18.80;;;9.10;;
76814;SDS011;65768;49.906;19.384;2023-04-02T07:20:22;18.60;;;9.90;;
76814;SDS011;65768;49.906;19.384;2023-04-02T07:23:00;17.60;;;8.10;;
76814;SDS011;65768;49.906;19.384;2023-04-02T07:25:28;17.20;;;8.50;;
76814;SDS011;65768;49.906;19.384;2023-04-02T07:27:57;14.10;;;7.80;;
76814;SDS011;65768;49.906;19.384;2023-04-02T07:30:26;15.20;;;7.80;;
76814;SDS011;65768;49.906;19.384;2023-04-02T07:32:54;17.10;;;8.70;;
76814;SDS011;65768;49.906;19.384;2023-04-02T07:35:23;16.10;;;7.90;;
76814;SDS011;65768;49.906;19.384;2023-04-02T07:37:53;11.20;;;6.00;;
76814;SDS011;65768;49.906;19.384;2023-04-02T07:40:21;11.60;;;6.70;;
76814;SDS011;65768;49.906;19.384;2023-04-02T07:42:51;13.40;;;6.90;;
76814;SDS011;65768;49.906;19.384;2023-04-02T07:45:19;14.00;;;7.20;;
76814;SDS011;65768;49.906;19.384;2023-04-02T07:47:48;15.30;;;8.20;;
76814;SDS011;65768;49.906;19.384;2023-04-02T07:50:17;4.80;;;2.20;;
76814;SDS011;65768;49.906;19.384;2023-04-02T07:52:46;7.50;;;3.60;;
76814;SDS011;65768;49.906;19.384;2023-04-02T07:55:15;6.00;;;3.20;;
76814;SDS011;65768;49.906;19.384;2023-04-02T07:57:48;5.00;;;2.20;;
76814;SDS011;65768;49.906;19.384;2023-04-02T08:00:19;10.70;;;4.50;;
76814;SDS011;65768;49.906;19.384;2023-04-02T08:02:48;8.80;;;3.70;;
76814;SDS011;65768;49.906;19.384;2023-04-02T08:05:17;8.70;;;4.50;;
76814;SDS011;65768;49.906;19.384;2023-04-02T08:07:53;9.80;;;4.70;;
76814;SDS011;65768;49.906;19.384;2023-04-02T08:10:22;9.60;;;4.00;;
76814;SDS011;65768;49.906;19.384;2023-04-02T08:12:51;6.90;;;3.40;;
76814;SDS011;65768;49.906;19.384;2023-04-02T08:15:20;10.70;;;5.00;;
76814;SDS011;65768;49.906;19.384;2023-04-02T08:17:49;9.60;;;4.30;;
76814;SDS011;65768;49.906;19.384;2023-04-02T08:20:19;9.40;;;4.40;;
76814;SDS011;65768;49.906;19.384;2023-04-02T08:22:49;9.20;;;5.30;;
76814;SDS011;65768;49.906;19.384;2023-04-02T08:25:18;10.10;;;4.20;;
76814;SDS011;65768;49.906;19.384;2023-04-02T08:27:46;8.30;;;4.50;;
76814;SDS011;65768;49.906;19.384;2023-04-02T08:30:15;11.10;;;5.00;;
76814;SDS011;65768;49.906;19.384;2023-04-02T08:32:44;6.60;;;3.60;;
76814;SDS011;65768;49.906;19.384;2023-04-02T08:35:14;10.50;;;4.90;;
76814;SDS011;65768;49.906;19.384;2023-04-02T08:37:43;11.60;;;5.60;;
76814;SDS011;65768;49.906;19.384;2023-04-02T08:40:18;9.20;;;4.20;;
76814;SDS011;65768;49.906;19.384;2023-04-02T08:48:21;9.60;;;4.20;;
76814;SDS011;65768;49.906;19.384;2023-04-02T08:50:50;6.70;;;2.80;;
76814;SDS011;65768;49.906;19.384;2023-04-02T08:53:20;6.40;;;3.00;;
76814;SDS011;65768;49.906;19.384;2023-04-02T09:01:26;6.50;;;3.10;;
76814;SDS011;65768;49.906;19.384;2023-04-02T09:04:19;4.10;;;2.00;;
76814;SDS011;65768;49.906;19.384;2023-04-02T09:06:50;5.10;;;2.10;;
76814;SDS011;65768;49.906;19.384;2023-04-02T09:09:22;7.30;;;2.30;;
76814;SDS011;65768;49.906;19.384;2023-04-02T09:11:55;6.40;;;2.90;;
76814;SDS011;65768;49.906;19.384;2023-04-02T09:14:40;4.80;;;2.70;;
76814;SDS011;65768;49.906;19.384;2023-04-02T09:17:21;5.80;;;2.00;;
76814;SDS011;65768;49.906;19.384;2023-04-02T09:20:02;7.00;;;2.40;;
76814;SDS011;65768;49.906;19.384;2023-04-02T09:22:45;8.50;;;4.40;;
76814;SDS011;65768;49.906;19.384;2023-04-02T09:25:25;7.60;;;3.70;;
76814;SDS011;65768;49.906;19.384;2023-04-02T09:28:03;7.90;;;4.40;;
76814;SDS011;65768;49.906;19.384;2023-04-02T09:33:20;15.40;;;6.20;;
76814;SDS011;65768;49.906;19.384;2023-04-02T09:39:16;10.00;;;5.30;;
76814;SDS011;65768;49.906;19.384;2023-04-02T09:41:47;6.70;;;4.00;;
76814;SDS011;65768;49.906;19.384;2023-04-02T09:44:25;8.60;;;4.30;;
76814;SDS011;65768;49.906;19.384;2023-04-02T09:46:58;13.80;;;7.30;;
76814;SDS011;65768;49.906;19.384;2023-04-02T09:52:08;9.10;;;5.90;;
76814;SDS011;65768;49.906;19.384;2023-04-02T09:54:42;8.80;;;5.10;;
76814;SDS011;65768;49.906;19.384;2023-04-02T09:57:21;5.60;;;3.60;;
76814;SDS011;65768;49.906;19.384;2023-04-02T10:03:04;9.10;;;4.30;;
76814;SDS011;65768;49.906;19.384;2023-04-02T10:05:45;5.70;;;2.50;;
76814;SDS011;65768;49.906;19.384;2023-04-02T10:08:16;4.60;;;2.10;;
76814;SDS011;65768;49.906;19.384;2023-04-02T10:10:56;2.20;;;1.20;;
76814;SDS011;65768;49.906;19.384;2023-04-02T10:16:25;7.30;;;3.60;;
76814;SDS011;65768;49.906;19.384;2023-04-02T10:22:19;10.60;;;5.60;;
76814;SDS011;65768;49.906;19.384;2023-04-02T10:24:49;6.70;;;4.30;;
76814;SDS011;65768;49.906;19.384;2023-04-02T10:27:25;6.40;;;3.70;;
76814;SDS011;65768;49.906;19.384;2023-04-02T10:31:01;3.60;;;2.10;;
76814;SDS011;65768;49.906;19.384;2023-04-02T10:33:02;2.90;;;2.20;;
76814;SDS011;65768;49.906;19.384;2023-04-02T10:35:49;6.10;;;2.90;;
76814;SDS011;65768;49.906;19.384;2023-04-02T10:42:04;5.00;;;2.90;;
76814;SDS011;65768;49.906;19.384;2023-04-02T10:44:49;4.00;;;2.00;;
76814;SDS011;65768;49.906;19.384;2023-04-02T10:50:44;5.90;;;3.00;;
76814;SDS011;65768;49.906;19.384;2023-04-02T10:53:18;5.90;;;3.10;;
76814;SDS011;65768;49.906;19.384;2023-04-02T10:55:52;8.90;;;4.60;;
76814;SDS011;65768;49.906;19.384;2023-04-02T10:58:32;9.90;;;5.30;;
76814;SDS011;65768;49.906;19.384;2023-04-02T11:01:08;9.40;;;3.90;;
76814;SDS011;65768;49.906;19.384;2023-04-02T11:03:55;7.40;;;4.60;;
76814;SDS011;65768;49.906;19.384;2023-04-02T11:06:31;5.50;;;3.30;;
76814;SDS011;65768;49.906;19.384;2023-04-02T11:09:25;5.50;;;2.70;;
76814;SDS011;65768;49.906;19.384;2023-04-02T11:11:58;8.90;;;4.20;;
76814;SDS011;65768;49.906;19.384;2023-04-02T11:14:30;13.90;;;4.70;;
76814;SDS011;65768;49.906;19.384;2023-04-02T11:17:00;7.70;;;3.50;;
76814;SDS011;65768;49.906;19.384;2023-04-02T11:19:32;8.60;;;4.40;;
76814;SDS011;65768;49.906;19.384;2023-04-02T11:22:14;7.90;;;4.20;;
76814;SDS011;65768;49.906;19.384;2023-04-02T11:24:46;5.40;;;3.40;;
76814;SDS011;65768;49.906;19.384;2023-04-02T11:27:35;12.20;;;6.80;;
76814;SDS011;65768;49.906;19.384;2023-04-02T11:32:47;7.60;;;4.80;;
76814;SDS011;65768;49.906;19.384;2023-04-02T11:44:23;8.60;;;5.60;;
76814;SDS011;65768;49.906;19.384;2023-04-02T11:46:57;8.60;;;5.00;;
76814;SDS011;65768;49.906;19.384;2023-04-02T11:52:31;11.40;;;6.70;;
76814;SDS011;65768;49.906;19.384;2023-04-02T12:12:15;20.20;;;11.70;;
76814;SDS011;65768;49.906;19.384;2023-04-02T12:14:52;18.00;;;9.30;;
76814;SDS011;65768;49.906;19.384;2023-04-02T12:22:50;27.10;;;13.80;;
76814;SDS011;65768;49.906;19.384;2023-04-02T12:25:26;23.20;;;11.50;;
76814;SDS011;65768;49.906;19.384;2023-04-02T12:30:48;16.70;;;9.70;;
76814;SDS011;65768;49.906;19.384;2023-04-02T12:35:58;16.40;;;8.80;;
76814;SDS011;65768;49.906;19.384;2023-04-02T12:38:32;13.60;;;7.60;;
76814;SDS011;65768;49.906;19.384;2023-04-02T12:41:05;12.20;;;7.30;;
76814;SDS011;65768;49.906;19.384;2023-04-02T12:43:47;11.20;;;6.80;;
76814;SDS011;65768;49.906;19.384;2023-04-02T12:46:30;20.80;;;10.70;;
76814;SDS011;65768;49.906;19.384;2023-04-02T12:49:05;16.60;;;9.20;;
76814;SDS011;65768;49.906;19.384;2023-04-02T12:51:41;15.20;;;6.60;;
76814;SDS011;65768;49.906;19.384;2023-04-02T12:54:12;17.80;;;10.10;;
76814;SDS011;65768;49.906;19.384;2023-04-02T12:56:45;16.80;;;9.50;;
76814;SDS011;65768;49.906;19.384;2023-04-02T12:59:29;14.70;;;8.30;;
76814;SDS011;65768;49.906;19.384;2023-04-02T13:02:16;14.10;;;7.40;;
76814;SDS011;65768;49.906;19.384;2023-04-02T13:04:52;12.40;;;7.70;;
76814;SDS011;65768;49.906;19.384;2023-04-02T13:07:25;12.70;;;7.30;;
76814;SDS011;65768;49.906;19.384;2023-04-02T13:09:59;18.10;;;8.80;;
76814;SDS011;65768;49.906;19.384;2023-04-02T13:12:53;15.20;;;8.90;;
76814;SDS011;65768;49.906;19.384;2023-04-02T13:15:32;14.60;;;6.60;;
76814;SDS011;65768;49.906;19.384;2023-04-02T13:18:12;22.10;;;8.70;;
76814;SDS011;65768;49.906;19.384;2023-04-02T13:20:56;21.40;;;11.20;;
76814;SDS011;65768;49.906;19.384;2023-04-02T13:26:08;19.30;;;10.50;;
76814;SDS011;65768;49.906;19.384;2023-04-02T13:31:54;26.60;;;14.00;;
76814;SDS011;65768;49.906;19.384;2023-04-02T13:34:25;27.10;;;15.00;;
76814;SDS011;65768;49.906;19.384;2023-04-02T13:36:54;36.00;;;15.40;;
76814;SDS011;65768;49.906;19.384;2023-04-02T13:39:24;19.30;;;9.90;;
76814;SDS011;65768;49.906;19.384;2023-04-02T13:41:58;28.90;;;14.20;;
76814;SDS011;65768;49.906;19.384;2023-04-02T13:44:30;18.40;;;10.00;;
76814;SDS011;65768;49.906;19.384;2023-04-02T13:47:00;33.30;;;15.10;;
76814;SDS011;65768;49.906;19.384;2023-04-02T13:49:28;28.50;;;13.20;;
76814;SDS011;65768;49.906;19.384;2023-04-02T13:51:59;26.50;;;14.00;;
76814;SDS011;65768;49.906;19.384;2023-04-02T13:54:46;22.70;;;12.70;;
76814;SDS011;65768;49.906;19.384;2023-04-02T13:57:18;21.10;;;11.70;;
76814;SDS011;65768;49.906;19.384;2023-04-02T13:59:47;15.80;;;9.20;;
76814;SDS011;65768;49.906;19.384;2023-04-02T14:02:17;24.30;;;13.50;;
76814;SDS011;65768;49.906;19.384;2023-04-02T14:04:52;21.60;;;12.10;;
76814;SDS011;65768;49.906;19.384;2023-04-02T14:10:10;22.80;;;12.60;;
76814;SDS011;65768;49.906;19.384;2023-04-02T14:13:07;26.30;;;13.70;;
76814;SDS011;65768;49.906;19.384;2023-04-02T14:16:17;24.50;;;12.70;;
76814;SDS011;65768;49.906;19.384;2023-04-02T14:19:16;21.20;;;11.10;;
76814;SDS011;65768;49.906;19.384;2023-04-02T14:21:58;18.70;;;10.10;;
76814;SDS011;65768;49.906;19.384;2023-04-02T14:27:21;20.00;;;9.90;;
76814;SDS011;65768;49.906;19.384;2023-04-02T14:30:05;20.70;;;11.30;;
76814;SDS011;65768;49.906;19.384;2023-04-02T14:33:03;23.40;;;13.80;;
76814;SDS011;65768;49.906;19.384;2023-04-02T14:36:14;18.70;;;10.50;;
76814;SDS011;65768;49.906;19.384;2023-04-02T14:39:17;18.40;;;10.90;;
76814;SDS011;65768;49.906;19.384;2023-04-02T14:42:17;17.50;;;10.40;;
76814;SDS011;65768;49.906;19.384;2023-04-02T14:50:58;18.70;;;12.10;;
76814;SDS011;65768;49.906;19.384;2023-04-02T14:56:21;23.40;;;12.40;;
76814;SDS011;65768;49.906;19.384;2023-04-02T14:58:53;22.90;;;14.10;;
76814;SDS011;65768;49.906;19.384;2023-04-02T15:01:35;16.20;;;9.20;;
76814;SDS011;65768;49.906;19.384;2023-04-02T15:04:16;25.30;;;14.50;;
76814;SDS011;65768;49.906;19.384;2023-04-02T15:06:51;24.40;;;13.00;;
76814;SDS011;65768;49.906;19.384;2023-04-02T15:09:27;28.90;;;15.50;;
76814;SDS011;65768;49.906;19.384;2023-04-02T15:12:21;29.30;;;14.00;;
76814;SDS011;65768;49.906;19.384;2023-04-02T15:14:55;27.70;;;14.80;;
76814;SDS011;65768;49.906;19.384;2023-04-02T15:17:31;19.20;;;11.60;;
76814;SDS011;65768;49.906;19.384;2023-04-02T15:20:35;17.70;;;9.30;;
76814;SDS011;65768;49.906;19.384;2023-04-02T15:23:05;19.20;;;11.20;;
76814;SDS011;65768;49.906;19.384;2023-04-02T15:28:30;22.50;;;12.40;;
76814;SDS011;65768;49.906;19.384;2023-04-02T15:31:10;20.40;;;11.70;;
76814;SDS011;65768;49.906;19.384;2023-04-02T15:33:44;19.20;;;11.20;;
76814;SDS011;65768;49.906;19.384;2023-04-02T15:39:50;19.10;;;11.00;;
76814;SDS011;65768;49.906;19.384;2023-04-02T15:42:49;24.60;;;13.50;;
76814;SDS011;65768;49.906;19.384;2023-04-02T15:45:28;22.70;;;12.50;;
76814;SDS011;65768;49.906;19.384;2023-04-02T15:48:16;12.50;;;8.00;;
76814;SDS011;65768;49.906;19.384;2023-04-02T15:51:12;20.00;;;11.80;;
76814;SDS011;65768;49.906;19.384;2023-04-02T16:11:38;19.50;;;9.60;;
76814;SDS011;65768;49.906;19.384;2023-04-02T16:14:21;19.50;;;11.30;;
76814;SDS011;65768;49.906;19.384;2023-04-02T16:17:02;18.50;;;11.40;;
76814;SDS011;65768;49.906;19.384;2023-04-02T16:19:35;23.20;;;12.80;;
76814;SDS011;65768;49.906;19.384;2023-04-02T16:22:16;20.00;;;11.20;;
76814;SDS011;65768;49.906;19.384;2023-04-02T16:25:40;21.60;;;11.40;;
76814;SDS011;65768;49.906;19.384;2023-04-02T16:27:57;23.80;;;12.50;;
76814;SDS011;65768;49.906;19.384;2023-04-02T16:37:18;15.90;;;10.00;;
76814;SDS011;65768;49.906;19.384;2023-04-02T16:43:40;21.40;;;11.40;;
76814;SDS011;65768;49.906;19.384;2023-04-02T16:46:08;20.40;;;10.70;;
76814;SDS011;65768;49.906;19.384;2023-04-02T16:52:20;19.90;;;11.80;;
76814;SDS011;65768;49.906;19.384;2023-04-02T16:55:21;12.00;;;7.80;;
76814;SDS011;65768;49.906;19.384;2023-04-02T16:58:22;13.30;;;8.40;;
76814;SDS011;65768;49.906;19.384;2023-04-02T17:07:34;14.50;;;8.50;;
76814;SDS011;65768;49.906;19.384;2023-04-02T17:16:15;16.80;;;10.90;;
76814;SDS011;65768;49.906;19.384;2023-04-02T17:18:50;17.80;;;10.20;;
76814;SDS011;65768;49.906;19.384;2023-04-02T17:21:24;18.50;;;10.50;;
76814;SDS011;65768;49.906;19.384;2023-04-02T17:26:38;12.70;;;8.10;;
76814;SDS011;65768;49.906;19.384;2023-04-02T17:29:12;8.80;;;5.20;;
76814;SDS011;65768;49.906;19.384;2023-04-02T17:31:46;11.90;;;7.80;;
76814;SDS011;65768;49.906;19.384;2023-04-02T17:34:17;11.30;;;8.20;;
76814;SDS011;65768;49.906;19.384;2023-04-02T17:42:47;11.80;;;8.00;;
76814;SDS011;65768;49.906;19.384;2023-04-02T17:45:43;13.80;;;8.50;;
76814;SDS011;65768;49.906;19.384;2023-04-02T17:48:32;16.20;;;10.10;;
76814;SDS011;65768;49.906;19.384;2023-04-02T17:57:22;15.80;;;9.00;;
76814;SDS011;65768;49.906;19.384;2023-04-02T18:02:53;15.90;;;10.40;;
76814;SDS011;65768;49.906;19.384;2023-04-02T18:05:58;15.30;;;9.70;;
76814;SDS011;65768;49.906;19.384;2023-04-02T18:15:04;10.80;;;8.00;;
76814;SDS011;65768;49.906;19.384;2023-04-02T18:18:02;11.90;;;7.10;;
76814;SDS011;65768;49.906;19.384;2023-04-02T18:21:12;12.10;;;7.20;;
76814;SDS011;65768;49.906;19.384;2023-04-02T18:30:22;7.30;;;4.50;;
76814;SDS011;65768;49.906;19.384;2023-04-02T18:33:20;8.00;;;4.80;;
76814;SDS011;65768;49.906;19.384;2023-04-02T18:36:05;10.10;;;5.60;;
76814;SDS011;65768;49.906;19.384;2023-04-02T18:41:49;9.40;;;4.50;;
76814;SDS011;65768;49.906;19.384;2023-04-02T18:44:43;7.40;;;4.80;;
76814;SDS011;65768;49.906;19.384;2023-04-02T18:47:37;8.20;;;5.10;;
76814;SDS011;65768;49.906;19.384;2023-04-02T18:50:31;7.10;;;4.70;;
76814;SDS011;65768;49.906;19.384;2023-04-02T18:55:41;7.80;;;5.20;;
76814;SDS011;65768;49.906;19.384;2023-04-02T18:58:28;8.10;;;4.20;;
76814;SDS011;65768;49.906;19.384;2023-04-02T19:01:33;8.00;;;5.10;;
76814;SDS011;65768;49.906;19.384;2023-04-02T19:04:12;7.60;;;4.30;;
76814;SDS011;65768;49.906;19.384;2023-04-02T19:07:11;9.60;;;5.80;;
76814;SDS011;65768;49.906;19.384;2023-04-02T19:09:45;6.80;;;4.90;;
76814;SDS011;65768;49.906;19.384;2023-04-02T19:12:19;9.50;;;5.10;;
76814;SDS011;65768;49.906;19.384;2023-04-02T19:14:50;9.80;;;4.60;;
76814;SDS011;65768;49.906;19.384;2023-04-02T19:20:04;10.30;;;6.00;;
76814;SDS011;65768;49.906;19.384;2023-04-02T19:32:11;15.00;;;8.00;;
76814;SDS011;65768;49.906;19.384;2023-04-02T19:35:06;14.30;;;7.80;;
76814;SDS011;65768;49.906;19.384;2023-04-02T19:43:29;15.90;;;10.80;;
76814;SDS011;65768;49.906;19.384;2023-04-02T19:45:58;17.30;;;10.40;;
76814;SDS011;65768;49.906;19.384;2023-04-02T19:51:25;20.40;;;10.30;;
76814;SDS011;65768;49.906;19.384;2023-04-02T19:53:55;16.90;;;10.70;;
76814;SDS011;65768;49.906;19.384;2023-04-02T19:56:23;19.00;;;10.80;;
76814;SDS011;65768;49.906;19.384;2023-04-02T19:58:53;19.40;;;10.50;;
76814;SDS011;65768;49.906;19.384;2023-04-02T20:01:22;21.10;;;12.30;;
76814;SDS011;65768;49.906;19.384;2023-04-02T20:03:50;21.90;;;13.40;;
76814;SDS011;65768;49.906;19.384;2023-04-02T20:06:20;22.90;;;13.30;;
76814;SDS011;65768;49.906;19.384;2023-04-02T20:08:48;19.60;;;12.60;;
76814;SDS011;65768;49.906;19.384;2023-04-02T20:11:17;19.50;;;12.10;;
76814;SDS011;65768;49.906;19.384;2023-04-02T20:13:46;15.50;;;9.10;;
76814;SDS011;65768;49.906;19.384;2023-04-02T20:16:17;20.70;;;12.30;;
76814;SDS011;65768;49.906;19.384;2023-04-02T20:18:46;21.80;;;13.10;;
76814;SDS011;65768;49.906;19.384;2023-04-02T20:21:15;26.00;;;13.90;;
76814;SDS011;65768;49.906;19.384;2023-04-02T20:23:46;22.90;;;11.60;;